createdAt,value
2023-04-22T09:04:14.055Z,99.90
2023-04-22T09:06:40.901Z,99.90
2023-04-22T09:09:08.878Z,99.90
2023-04-22T09:11:36.252Z,99.90
2023-04-22T09:14:06.644Z,99.90
2023-04-22T09:16:42.976Z,99.90
2023-04-22T09:19:13.775Z,99.90
2023-04-22T09:21:41.409Z,99.90
2023-04-22T09:24:10.719Z,99.90
2023-04-22T09:26:42.277Z,99.90
2023-04-22T09:29:14.432Z,99.90
2023-04-22T09:31:41.426Z,99.90
2023-04-22T09:34:08.981Z,99.90
2023-04-22T09:36:37.836Z,99.90
2023-04-22T09:39:08.852Z,99.90
2023-04-22T09:41:36.750Z,99.90
2023-04-22T09:44:04.748Z,99.80
2023-04-22T09:46:33.884Z,99.20
2023-04-22T09:49:00.886Z,99.20
2023-04-22T09:51:28.588Z,99.00
2023-04-22T09:54:04.226Z,98.50
2023-04-22T09:56:49.419Z,98.30
2023-04-22T09:59:22.027Z,98.10
2023-04-22T10:01:49.883Z,98.70
2023-04-22T10:04:21.366Z,98.00
2023-04-22T10:06:49.184Z,98.00
2023-04-22T10:09:20.456Z,97.40
2023-04-22T10:11:49.371Z,97.50
2023-04-22T10:14:16.345Z,96.30
2023-04-22T10:16:47.873Z,96.40
2023-04-22T10:19:21.711Z,96.40
2023-04-22T10:21:52.272Z,96.40
2023-04-22T10:24:19.755Z,95.80
2023-04-22T10:26:59.823Z,96.00
2023-04-22T10:29:34.846Z,95.40
2023-04-22T10:32:17.435Z,95.30
2023-04-22T10:34:48.178Z,95.30
2023-04-22T10:37:18.851Z,95.00
2023-04-22T10:40:16.040Z,94.60
2023-04-22T10:42:49.161Z,94.30
2023-04-22T10:45:16.026Z,93.80
2023-04-22T10:47:43.636Z,94.10
2023-04-22T10:50:21.754Z,94.30
2023-04-22T10:52:52.873Z,93.60
2023-04-22T11:02:51.840Z,93.50
2023-04-22T11:05:25.954Z,91.40
2023-04-22T11:07:55.881Z,90.60
2023-04-22T15:50:38.869Z,90.50
2023-04-22T15:53:06.691Z,99.90
2023-04-22T15:55:33.349Z,99.90
2023-04-22T15:58:00.549Z,99.90
2023-04-22T16:00:27.338Z,99.90
